sensor_id;sensor_type;location;lat;lon;timestamp;pressure;altitude;pressure_sealevel;temperature;humidity
58243;BME280;50118;53.232;8.252;2023-09-12T00:02:03;101104.66;;;19.19;100.00
58243;BME280;50118;53.232;8.252;2023-09-12T00:04:29;101074.13;;;19.19;100.00
58243;BME280;50118;53.232;8.252;2023-09-12T00:06:54;101069.75;;;19.18;100.00
58243;BME280;50118;53.232;8.252;2023-09-12T00:09:20;101092.53;;;19.09;100.00
58243;BME280;50118;53.232;8.252;2023-09-12T00:11:45;101110.91;;;19.20;100.00
58243;BME280;50118;53.232;8.252;2023-09-12T00:14:15;101103.19;;;19.17;100.00
58243;BME280;50118;53.232;8.252;2023-09-12T00:16:40;101105.88;;;19.17;100.00
58243;BME280;50118;53.232;8.252;2023-09-12T00:19:06;101120.81;;;19.13;100.00
58243;BME280;50118;53.232;8.252;2023-09-12T00:21:31;101123.31;;;19.14;100.00
58243;BME280;50118;53.232;8.252;2023-09-12T00:23:57;101121.81;;;19.12;100.00
58243;BME280;50118;53.232;8.252;2023-09-12T00:26:22;101119.91;;;19.06;100.00
58243;BME280;50118;53.232;8.252;2023-09-12T00:28:47;101112.81;;;19.04;100.00
58243;BME280;50118;53.232;8.252;2023-09-12T00:31:13;101125.69;;;19.02;100.00
58243;BME280;50118;53.232;8.252;2023-09-12T00:33:38;101131.47;;;18.99;100.00
58243;BME280;50118;53.232;8.252;2023-09-12T00:36:04;101130.44;;;19.00;100.00
58243;BME280;50118;53.232;8.252;2023-09-12T00:38:29;101132.69;;;18.97;100.00
58243;BME280;50118;53.232;8.252;2023-09-12T00:40:55;101136.97;;;18.91;100.00
58243;BME280;50118;53.232;8.252;2023-09-12T00:43:20;101143.41;;;18.90;100.00
58243;BME280;50118;53.232;8.252;2023-09-12T00:45:46;101166.03;;;18.89;100.00
58243;BME280;50118;53.232;8.252;2023-09-12T00:48:12;101170.41;;;18.90;100.00
58243;BME280;50118;53.232;8.252;2023-09-12T00:50:39;101170.00;;;18.93;100.00
58243;BME280;50118;53.232;8.252;2023-09-12T00:53:05;101167.78;;;18.97;100.00
58243;BME280;50118;53.232;8.252;2023-09-12T00:55:32;101162.38;;;18.97;100.00
58243;BME280;50118;53.232;8.252;2023-09-12T00:58:00;101159.69;;;18.97;100.00
58243;BME280;50118;53.232;8.252;2023-09-12T01:00:26;101142.00;;;18.94;100.00
58243;BME280;50118;53.232;8.252;2023-09-12T01:02:52;101133.53;;;18.97;100.00
58243;BME280;50118;53.232;8.252;2023-09-12T01:05:20;101142.53;;;19.04;100.00
58243;BME280;50118;53.232;8.252;2023-09-12T01:07:47;101154.75;;;19.00;100.00
58243;BME280;50118;53.232;8.252;2023-09-12T01:10:13;101147.19;;;18.96;100.00
58243;BME280;50118;53.232;8.252;2023-09-12T01:12:38;101152.16;;;18.92;100.00
58243;BME280;50118;53.232;8.252;2023-09-12T01:15:05;101158.00;;;18.96;100.00
58243;BME280;50118;53.232;8.252;2023-09-12T01:17:33;101161.34;;;18.98;100.00
58243;BME280;50118;53.232;8.252;2023-09-12T01:20:00;101165.91;;;18.97;100.00
58243;BME280;50118;53.232;8.252;2023-09-12T01:22:51;101169.44;;;18.98;100.00
58243;BME280;50118;53.232;8.252;2023-09-12T01:27:59;101145.59;;;19.01;100.00
58243;BME280;50118;53.232;8.252;2023-09-12T01:30:27;101144.88;;;18.93;100.00
58243;BME280;50118;53.232;8.252;2023-09-12T01:32:53;101150.91;;;18.95;100.00
58243;BME280;50118;53.232;8.252;2023-09-12T01:35:39;101158.19;;;18.94;100.00
58243;BME280;50118;53.232;8.252;2023-09-12T01:38:04;101156.06;;;18.90;100.00
58243;BME280;50118;53.232;8.252;2023-09-12T01:40:48;101156.25;;;18.88;100.00
58243;BME280;50118;53.232;8.252;2023-09-12T01:43:19;101149.25;;;18.94;100.00
58243;BME280;50118;53.232;8.252;2023-09-12T01:45:48;101146.13;;;18.90;100.00
58243;BME280;50118;53.232;8.252;2023-09-12T01:48:21;101141.09;;;18.87;100.00
58243;BME280;50118;53.232;8.252;2023-09-12T01:50:48;101136.06;;;18.84;100.00
58243;BME280;50118;53.232;8.252;2023-09-12T01:53:15;101132.06;;;18.80;100.00
58243;BME280;50118;53.232;8.252;2023-09-12T01:55:42;101127.03;;;18.77;100.00
58243;BME280;50118;53.232;8.252;2023-09-12T01:58:08;101122.66;;;18.76;100.00
58243;BME280;50118;53.232;8.252;2023-09-12T02:00:34;101117.44;;;18.74;100.00
58243;BME280;50118;53.232;8.252;2023-09-12T02:03:01;101134.09;;;18.78;100.00
58243;BME280;50118;53.232;8.252;2023-09-12T02:05:26;101131.13;;;18.73;100.00
58243;BME280;50118;53.232;8.252;2023-09-12T02:07:52;101115.88;;;18.80;100.00
58243;BME280;50118;53.232;8.252;2023-09-12T02:10:17;101089.91;;;18.79;100.00
58243;BME280;50118;53.232;8.252;2023-09-12T02:12:43;101082.56;;;18.73;100.00
58243;BME280;50118;53.232;8.252;2023-09-12T02:15:09;101089.38;;;18.69;100.00
58243;BME280;50118;53.232;8.252;2023-09-12T02:17:34;101080.81;;;18.65;100.00
58243;BME280;50118;53.232;8.252;2023-09-12T02:20:00;101044.25;;;18.62;100.00
58243;BME280;50118;53.232;8.252;2023-09-12T02:22:25;101057.47;;;18.57;100.00
58243;BME280;50118;53.232;8.252;2023-09-12T02:24:51;101062.03;;;18.57;100.00
58243;BME280;50118;53.232;8.252;2023-09-12T02:27:16;101054.59;;;18.59;100.00
58243;BME280;50118;53.232;8.252;2023-09-12T02:29:42;101060.84;;;18.59;100.00
58243;BME280;50118;53.232;8.252;2023-09-12T02:32:08;101074.13;;;18.61;100.00
58243;BME280;50118;53.232;8.252;2023-09-12T02:34:34;101078.22;;;18.57;100.00
58243;BME280;50118;53.232;8.252;2023-09-12T02:36:59;101101.03;;;18.54;100.00
58243;BME280;50118;53.232;8.252;2023-09-12T02:39:25;101128.38;;;18.51;100.00
58243;BME280;50118;53.232;8.252;2023-09-12T02:41:50;101140.00;;;18.52;100.00
58243;BME280;50118;53.232;8.252;2023-09-12T02:44:16;101161.59;;;18.52;100.00
58243;BME280;50118;53.232;8.252;2023-09-12T02:46:41;101183.63;;;18.55;100.00
58243;BME280;50118;53.232;8.252;2023-09-12T02:49:07;101186.69;;;18.52;100.00
58243;BME280;50118;53.232;8.252;2023-09-12T02:51:32;101193.59;;;18.55;100.00
58243;BME280;50118;53.232;8.252;2023-09-12T02:53:58;101187.72;;;18.51;100.00
58243;BME280;50118;53.232;8.252;2023-09-12T02:56:23;101176.94;;;18.51;100.00
58243;BME280;50118;53.232;8.252;2023-09-12T02:58:49;101171.53;;;18.51;100.00
58243;BME280;50118;53.232;8.252;2023-09-12T03:01:15;101169.84;;;18.50;100.00
58243;BME280;50118;53.232;8.252;2023-09-12T03:03:41;101168.66;;;18.53;100.00
58243;BME280;50118;53.232;8.252;2023-09-12T03:06:07;101157.00;;;18.52;100.00
58243;BME280;50118;53.232;8.252;2023-09-12T03:08:32;101140.00;;;18.52;100.00
58243;BME280;50118;53.232;8.252;2023-09-12T03:10:58;101139.19;;;18.51;100.00
58243;BME280;50118;53.232;8.252;2023-09-12T03:13:25;101134.78;;;18.50;100.00
58243;BME280;50118;53.232;8.252;2023-09-12T03:15:51;101118.16;;;18.46;100.00
58243;BME280;50118;53.232;8.252;2023-09-12T03:18:17;101130.81;;;18.46;100.00
58243;BME280;50118;53.232;8.252;2023-09-12T03:20:42;101115.81;;;18.43;100.00
58243;BME280;50118;53.232;8.252;2023-09-12T03:23:08;101111.28;;;18.44;100.00
58243;BME280;50118;53.232;8.252;2023-09-12T03:25:37;101110.81;;;18.40;100.00
58243;BME280;50118;53.232;8.252;2023-09-12T03:28:05;101109.97;;;18.40;100.00
58243;BME280;50118;53.232;8.252;2023-09-12T03:30:32;101110.34;;;18.37;100.00
58243;BME280;50118;53.232;8.252;2023-09-12T03:32:58;101112.41;;;18.35;100.00
58243;BME280;50118;53.232;8.252;2023-09-12T03:35:23;101107.19;;;18.33;100.00
58243;BME280;50118;53.232;8.252;2023-09-12T03:37:49;101105.31;;;18.34;100.00
58243;BME280;50118;53.232;8.252;2023-09-12T03:40:14;101103.38;;;18.27;100.00
58243;BME280;50118;53.232;8.252;2023-09-12T03:42:39;101102.75;;;18.25;100.00
58243;BME280;50118;53.232;8.252;2023-09-12T03:45:05;101086.94;;;18.22;100.00
58243;BME280;50118;53.232;8.252;2023-09-12T03:47:31;101078.22;;;18.20;100.00
58243;BME280;50118;53.232;8.252;2023-09-12T03:49:56;101068.63;;;18.18;100.00
58243;BME280;50118;53.232;8.252;2023-09-12T03:52:21;101076.63;;;18.11;100.00
58243;BME280;50118;53.232;8.252;2023-09-12T03:54:47;101079.69;;;18.08;100.00
58243;BME280;50118;53.232;8.252;2023-09-12T03:57:12;101079.88;;;18.06;100.00
58243;BME280;50118;53.232;8.252;2023-09-12T03:59:38;101079.88;;;18.06;100.00
58243;BME280;50118;53.232;8.252;2023-09-12T04:02:03;101083.41;;;18.07;100.00
58243;BME280;50118;53.232;8.252;2023-09-12T04:04:29;101081.38;;;18.09;100.00
58243;BME280;50118;53.232;8.252;2023-09-12T04:06:54;101090.47;;;18.08;100.00
58243;BME280;50118;53.232;8.252;2023-09-12T04:09:20;101076.97;;;18.08;100.00
58243;BME280;50118;53.232;8.252;2023-09-12T04:11:46;101075.50;;;18.05;100.00
58243;BME280;50118;53.232;8.252;2023-09-12T04:14:11;101076.34;;;18.06;100.00
58243;BME280;50118;53.232;8.252;2023-09-12T04:16:37;101077.44;;;18.11;100.00
58243;BME280;50118;53.232;8.252;2023-09-12T04:19:02;101085.16;;;18.15;100.00
58243;BME280;50118;53.232;8.252;2023-09-12T04:21:28;101080.22;;;18.18;100.00
58243;BME280;50118;53.232;8.252;2023-09-12T04:23:53;101091.00;;;18.18;100.00
58243;BME280;50118;53.232;8.252;2023-09-12T04:26:19;101096.41;;;18.18;100.00
58243;BME280;50118;53.232;8.252;2023-09-12T04:28:46;101105.53;;;18.17;100.00
58243;BME280;50118;53.232;8.252;2023-09-12T04:31:12;101111.28;;;18.14;100.00
58243;BME280;50118;53.232;8.252;2023-09-12T04:33:37;101101.06;;;18.09;100.00
58243;BME280;50118;53.232;8.252;2023-09-12T04:36:03;101100.59;;;18.06;100.00
58243;BME280;50118;53.232;8.252;2023-09-12T04:38:29;101112.69;;;18.10;100.00
58243;BME280;50118;53.232;8.252;2023-09-12T04:40:57;101112.69;;;18.10;100.00
58243;BME280;50118;53.232;8.252;2023-09-12T04:43:27;101124.50;;;18.09;100.00
58243;BME280;50118;53.232;8.252;2023-09-12T04:45:53;101115.75;;;18.07;100.00
58243;BME280;50118;53.232;8.252;2023-09-12T04:48:18;101119.94;;;18.09;100.00
58243;BME280;50118;53.232;8.252;2023-09-12T04:50:43;101118.28;;;18.08;100.00
58243;BME280;50118;53.232;8.252;2023-09-12T04:53:09;101124.13;;;18.12;100.00
58243;BME280;50118;53.232;8.252;2023-09-12T04:55:38;101122.06;;;18.14;100.00
58243;BME280;50118;53.232;8.252;2023-09-12T04:58:04;101128.13;;;18.16;100.00
58243;BME280;50118;53.232;8.252;2023-09-12T05:00:31;101135.38;;;18.16;100.00
58243;BME280;50118;53.232;8.252;2023-09-12T05:02:56;101128.47;;;18.13;100.00
58243;BME280;50118;53.232;8.252;2023-09-12T05:05:21;101132.41;;;18.10;100.00
58243;BME280;50118;53.232;8.252;2023-09-12T05:07:47;101127.00;;;18.10;100.00
58243;BME280;50118;53.232;8.252;2023-09-12T05:10:13;101140.31;;;18.12;100.00
58243;BME280;50118;53.232;8.252;2023-09-12T05:12:38;101142.53;;;18.08;100.00
58243;BME280;50118;53.232;8.252;2023-09-12T05:15:04;101138.97;;;18.08;100.00
58243;BME280;50118;53.232;8.252;2023-09-12T05:17:29;101140.19;;;18.05;100.00
58243;BME280;50118;53.232;8.252;2023-09-12T05:19:55;101146.41;;;18.06;100.00
58243;BME280;50118;53.232;8.252;2023-09-12T05:22:20;101144.75;;;18.05;100.00
58243;BME280;50118;53.232;8.252;2023-09-12T05:24:46;101138.16;;;18.07;100.00
58243;BME280;50118;53.232;8.252;2023-09-12T05:27:11;101138.63;;;18.11;100.00
58243;BME280;50118;53.232;8.252;2023-09-12T05:29:37;101137.44;;;18.14;100.00
58243;BME280;50118;53.232;8.252;2023-09-12T05:32:03;101141.97;;;18.13;100.00
58243;BME280;50118;53.232;8.252;2023-09-12T05:34:29;101144.38;;;18.08;100.00
58243;BME280;50118;53.232;8.252;2023-09-12T05:36:55;101152.47;;;18.08;100.00
58243;BME280;50118;53.232;8.252;2023-09-12T05:39:21;101146.88;;;18.09;100.00
58243;BME280;50118;53.232;8.252;2023-09-12T05:41:46;101144.00;;;18.11;100.00
58243;BME280;50118;53.232;8.252;2023-09-12T05:44:11;101140.31;;;18.12;100.00
58243;BME280;50118;53.232;8.252;2023-09-12T05:46:43;101138.25;;;18.14;100.00
58243;BME280;50118;53.232;8.252;2023-09-12T05:49:08;101142.25;;;18.18;100.00
58243;BME280;50118;53.232;8.252;2023-09-12T05:51:34;101148.31;;;18.20;100.00
58243;BME280;50118;53.232;8.252;2023-09-12T05:53:59;101152.66;;;18.21;100.00
58243;BME280;50118;53.232;8.252;2023-09-12T05:56:26;101146.25;;;18.22;100.00
58243;BME280;50118;53.232;8.252;2023-09-12T05:58:52;101148.31;;;18.20;100.00
58243;BME280;50118;53.232;8.252;2023-09-12T06:01:17;101151.19;;;18.19;100.00
58243;BME280;50118;53.232;8.252;2023-09-12T06:03:43;101138.34;;;18.21;100.00
58243;BME280;50118;53.232;8.252;2023-09-12T06:06:09;101151.66;;;18.22;100.00
58243;BME280;50118;53.232;8.252;2023-09-12T06:08:34;101141.50;;;18.24;100.00
58243;BME280;50118;53.232;8.252;2023-09-12T06:11:00;101146.72;;;18.26;100.00
58243;BME280;50118;53.232;8.252;2023-09-12T06:13:25;101136.75;;;18.26;100.00
58243;BME280;50118;53.232;8.252;2023-09-12T06:15:50;101137.69;;;18.34;100.00
58243;BME280;50118;53.232;8.252;2023-09-12T06:18:16;101152.28;;;18.39;100.00
58243;BME280;50118;53.232;8.252;2023-09-12T06:20:41;101152.47;;;18.38;100.00
58243;BME280;50118;53.232;8.252;2023-09-12T06:23:07;101163.53;;;18.43;100.00
58243;BME280;50118;53.232;8.252;2023-09-12T06:25:33;101163.91;;;18.40;100.00
58243;BME280;50118;53.232;8.252;2023-09-12T06:28:00;101155.81;;;18.40;100.00
58243;BME280;50118;53.232;8.252;2023-09-12T06:30:25;101143.16;;;18.40;100.00
58243;BME280;50118;53.232;8.252;2023-09-12T06:32:51;101143.06;;;18.34;100.00
58243;BME280;50118;53.232;8.252;2023-09-12T06:35:16;101132.88;;;18.44;100.00
58243;BME280;50118;53.232;8.252;2023-09-12T06:37:42;101124.28;;;18.55;100.00
58243;BME280;50118;53.232;8.252;2023-09-12T06:40:07;101123.44;;;18.55;100.00
58243;BME280;50118;53.232;8.252;2023-09-12T06:42:33;101132.28;;;18.48;100.00
58243;BME280;50118;53.232;8.252;2023-09-12T06:44:58;101133.31;;;18.47;100.00
58243;BME280;50118;53.232;8.252;2023-09-12T06:47:24;101122.34;;;18.49;100.00
58243;BME280;50118;53.232;8.252;2023-09-12T06:49:49;101125.69;;;18.51;100.00
58243;BME280;50118;53.232;8.252;2023-09-12T06:52:14;101118.50;;;18.58;100.00
58243;BME280;50118;53.232;8.252;2023-09-12T06:54:40;101121.75;;;18.69;100.00
58243;BME280;50118;53.232;8.252;2023-09-12T06:57:05;101107.50;;;18.75;100.00
58243;BME280;50118;53.232;8.252;2023-09-12T06:59:31;101110.09;;;18.83;100.00
58243;BME280;50118;53.232;8.252;2023-09-12T07:01:56;101119.69;;;18.85;100.00
58243;BME280;50118;53.232;8.252;2023-09-12T07:04:22;101122.09;;;18.95;100.00
58243;BME280;50118;53.232;8.252;2023-09-12T07:06:47;101131.56;;;18.91;100.00
58243;BME280;50118;53.232;8.252;2023-09-12T07:09:13;101135.19;;;18.98;100.00
58243;BME280;50118;53.232;8.252;2023-09-12T07:11:41;101122.53;;;18.99;100.00
58243;BME280;50118;53.232;8.252;2023-09-12T07:14:06;101127.38;;;19.03;100.00
58243;BME280;50118;53.232;8.252;2023-09-12T07:16:32;101129.53;;;19.15;100.00
58243;BME280;50118;53.232;8.252;2023-09-12T07:18:57;101137.00;;;19.13;100.00
58243;BME280;50118;53.232;8.252;2023-09-12T07:21:23;101141.50;;;19.06;100.00
58243;BME280;50118;53.232;8.252;2023-09-12T07:23:48;101151.00;;;19.01;100.00
58243;BME280;50118;53.232;8.252;2023-09-12T07:26:15;101149.06;;;18.95;100.00
58243;BME280;50118;53.232;8.252;2023-09-12T07:28:41;101159.69;;;18.97;100.00
58243;BME280;50118;53.232;8.252;2023-09-12T07:31:06;101158.81;;;18.96;100.00
58243;BME280;50118;53.232;8.252;2023-09-12T07:33:32;101158.38;;;18.78;100.00
58243;BME280;50118;53.232;8.252;2023-09-12T07:35:58;101155.97;;;18.83;100.00
58243;BME280;50118;53.232;8.252;2023-09-12T07:38:25;101153.28;;;18.83;100.00
58243;BME280;50118;53.232;8.252;2023-09-12T07:40:52;101147.97;;;18.75;100.00
58243;BME280;50118;53.232;8.252;2023-09-12T07:43:18;101161.06;;;18.78;100.00
58243;BME280;50118;53.232;8.252;2023-09-12T07:45:43;101169.84;;;18.80;100.00
58243;BME280;50118;53.232;8.252;2023-09-12T07:48:10;101175.72;;;18.83;100.00
58243;BME280;50118;53.232;8.252;2023-09-12T07:50:37;101184.34;;;18.79;100.00
58243;BME280;50118;53.232;8.252;2023-09-12T07:53:04;101193.38;;;18.86;100.00
58243;BME280;50118;53.232;8.252;2023-09-12T07:55:30;101194.94;;;18.80;100.00
58243;BME280;50118;53.232;8.252;2023-09-12T07:57:59;101202.03;;;18.81;100.00
58243;BME280;50118;53.232;8.252;2023-09-12T08:00:25;101209.84;;;18.91;100.00
58243;BME280;50118;53.232;8.252;2023-09-12T08:02:50;101212.81;;;18.96;100.00
58243;BME280;50118;53.232;8.252;2023-09-12T08:05:16;101217.47;;;19.02;100.00
58243;BME280;50118;53.232;8.252;2023-09-12T08:07:41;101224.94;;;19.00;100.00
58243;BME280;50118;53.232;8.252;2023-09-12T08:10:07;101225.09;;;19.14;100.00
58243;BME280;50118;53.232;8.252;2023-09-12T08:12:32;101223.66;;;19.18;100.00
58243;BME280;50118;53.232;8.252;2023-09-12T08:14:58;101228.84;;;19.34;100.00
58243;BME280;50118;53.232;8.252;2023-09-12T08:17:25;101225.88;;;19.51;100.00
58243;BME280;50118;53.232;8.252;2023-09-12T08:19:51;101227.31;;;19.68;100.00
58243;BME280;50118;53.232;8.252;2023-09-12T08:22:16;101233.09;;;19.87;100.00
58243;BME280;50118;53.232;8.252;2023-09-12T08:24:42;101229.75;;;20.06;100.00
58243;BME280;50118;53.232;8.252;2023-09-12T08:27:08;101233.34;;;20.13;100.00
58243;BME280;50118;53.232;8.252;2023-09-12T08:29:35;101231.56;;;20.27;100.00
58243;BME280;50118;53.232;8.252;2023-09-12T08:32:00;101233.34;;;20.42;100.00
58243;BME280;50118;53.232;8.252;2023-09-12T08:34:26;101232.97;;;20.51;100.00
58243;BME280;50118;53.232;8.252;2023-09-12T08:36:52;101235.56;;;20.66;100.00
58243;BME280;50118;53.232;8.252;2023-09-12T08:39:23;101237.28;;;20.74;100.00
58243;BME280;50118;53.232;8.252;2023-09-12T08:41:51;101226.63;;;20.66;100.00
58243;BME280;50118;53.232;8.252;2023-09-12T08:44:18;101230.72;;;20.62;100.00
58243;BME280;50118;53.232;8.252;2023-09-12T08:46:44;101233.00;;;20.58;100.00
58243;BME280;50118;53.232;8.252;2023-09-12T08:49:10;101225.56;;;20.67;100.00
58243;BME280;50118;53.232;8.252;2023-09-12T08:51:39;101230.91;;;20.53;100.00
58243;BME280;50118;53.232;8.252;2023-09-12T08:54:05;101228.34;;;20.45;100.00
58243;BME280;50118;53.232;8.252;2023-09-12T08:56:32;101231.31;;;20.50;100.00
58243;BME280;50118;53.232;8.252;2023-09-12T08:58:59;101222.47;;;20.70;100.00
58243;BME280;50118;53.232;8.252;2023-09-12T09:01:25;101230.44;;;20.78;100.00
58243;BME280;50118;53.232;8.252;2023-09-12T09:03:54;101226.53;;;20.87;100.00
58243;BME280;50118;53.232;8.252;2023-09-12T09:06:21;101235.75;;;21.00;100.00
58243;BME280;50118;53.232;8.252;2023-09-12T09:08:48;101238.31;;;21.21;100.00
58243;BME280;50118;53.232;8.252;2023-09-12T09:11:14;101246.66;;;21.26;100.00
58243;BME280;50118;53.232;8.252;2023-09-12T09:13:39;101244.28;;;21.03;100.00
58243;BME280;50118;53.232;8.252;2023-09-12T09:16:14;101239.47;;;20.99;100.00
58243;BME280;50118;53.232;8.252;2023-09-12T09:21:22;101246.56;;;21.00;100.00
58243;BME280;50118;53.232;8.252;2023-09-12T09:23:54;101253.50;;;21.16;100.00
58243;BME280;50118;53.232;8.252;2023-09-12T09:26:20;101247.97;;;20.89;100.00
58243;BME280;50118;53.232;8.252;2023-09-12T09:28:45;101235.31;;;20.96;100.00
58243;BME280;50118;53.232;8.252;2023-09-12T09:31:12;101243.78;;;21.41;100.00
58243;BME280;50118;53.232;8.252;2023-09-12T09:33:41;101242.19;;;21.47;100.00
58243;BME280;50118;53.232;8.252;2023-09-12T09:36:14;101245.53;;;21.76;100.00
58243;BME280;50118;53.232;8.252;2023-09-12T09:38:40;101250.53;;;21.66;100.00
58243;BME280;50118;53.232;8.252;2023-09-12T09:41:06;101249.94;;;21.77;100.00
58243;BME280;50118;53.232;8.252;2023-09-12T09:43:31;101257.25;;;21.96;100.00
58243;BME280;50118;53.232;8.252;2023-09-12T09:45:57;101255.38;;;21.97;100.00
58243;BME280;50118;53.232;8.252;2023-09-12T09:48:24;101258.91;;;22.17;100.00
58243;BME280;50118;53.232;8.252;2023-09-12T09:51:02;101253.91;;;22.14;100.00
58243;BME280;50118;53.232;8.252;2023-09-12T09:53:29;101254.75;;;21.81;100.00
58243;BME280;50118;53.232;8.252;2023-09-12T09:56:12;101251.38;;;21.86;100.00
58243;BME280;50118;53.232;8.252;2023-09-12T09:58:54;101259.75;;;21.78;100.00
58243;BME280;50118;53.232;8.252;2023-09-12T10:01:27;101256.59;;;21.81;100.00
58243;BME280;50118;53.232;8.252;2023-09-12T10:03:57;101258.91;;;21.84;100.00
58243;BME280;50118;53.232;8.252;2023-09-12T10:06:23;101265.53;;;21.61;100.00
58243;BME280;50118;53.232;8.252;2023-09-12T10:08:53;101268.03;;;21.56;100.00
58243;BME280;50118;53.232;8.252;2023-09-12T10:11:22;101264.53;;;21.62;100.00
58243;BME280;50118;53.232;8.252;2023-09-12T10:13:56;101269.69;;;21.51;100.00
58243;BME280;50118;53.232;8.252;2023-09-12T10:16:31;101257.31;;;21.35;100.00
58243;BME280;50118;53.232;8.252;2023-09-12T10:19:04;101255.84;;;21.25;100.00
58243;BME280;50118;53.232;8.252;2023-09-12T10:21:35;101264.06;;;21.04;100.00
58243;BME280;50118;53.232;8.252;2023-09-12T10:24:02;101249.84;;;20.88;100.00
58243;BME280;50118;53.232;8.252;2023-09-12T10:26:30;101256.09;;;20.89;100.00
58243;BME280;50118;53.232;8.252;2023-09-12T10:28:57;101255.09;;;20.62;100.00
58243;BME280;50118;53.232;8.252;2023-09-12T10:31:25;101250.16;;;20.72;100.00
58243;BME280;50118;53.232;8.252;2023-09-12T10:33:52;101237.53;;;20.79;100.00
58243;BME280;50118;53.232;8.252;2023-09-12T10:36:19;101245.41;;;20.74;100.00
58243;BME280;50118;53.232;8.252;2023-09-12T10:38:47;101238.16;;;20.81;100.00
58243;BME280;50118;53.232;8.252;2023-09-12T10:41:13;101236.78;;;20.99;100.00
58243;BME280;50118;53.232;8.252;2023-09-12T10:43:41;101235.81;;;21.20;100.00
58243;BME280;50118;53.232;8.252;2023-09-12T10:46:07;101228.06;;;21.10;100.00
58243;BME280;50118;53.232;8.252;2023-09-12T10:48:37;101224.19;;;21.39;100.00
58243;BME280;50118;53.232;8.252;2023-09-12T10:51:06;101219.25;;;21.50;100.00
58243;BME280;50118;53.232;8.252;2023-09-12T10:53:33;101211.75;;;21.72;100.00
58243;BME280;50118;53.232;8.252;2023-09-12T10:56:21;101215.50;;;21.84;100.00
58243;BME280;50118;53.232;8.252;2023-09-12T10:59:08;101216.75;;;22.28;100.00
58243;BME280;50118;53.232;8.252;2023-09-12T11:01:41;101216.31;;;22.51;100.00
58243;BME280;50118;53.232;8.252;2023-09-12T11:06:52;101225.81;;;22.81;100.00
58243;BME280;50118;53.232;8.252;2023-09-12T11:09:21;101228.03;;;23.10;99.91
58243;BME280;50118;53.232;8.252;2023-09-12T11:11:47;101223.81;;;23.15;100.00
58243;BME280;50118;53.232;8.252;2023-09-12T11:14:14;101211.03;;;23.22;97.66
58243;BME280;50118;53.232;8.252;2023-09-12T11:16:43;101218.19;;;23.73;97.77
58243;BME280;50118;53.232;8.252;2023-09-12T11:21:37;101215.53;;;24.79;84.52
58243;BME280;50118;53.232;8.252;2023-09-12T11:24:03;101218.25;;;24.97;82.51
58243;BME280;50118;53.232;8.252;2023-09-12T11:26:29;101223.66;;;25.34;82.89
58243;BME280;50118;53.232;8.252;2023-09-12T11:28:55;101218.22;;;25.46;78.34
58243;BME280;50118;53.232;8.252;2023-09-12T11:31:26;101224.47;;;25.05;80.49
58243;BME280;50118;53.232;8.252;2023-09-12T11:33:53;101217.63;;;25.14;82.86
58243;BME280;50118;53.232;8.252;2023-09-12T11:36:19;101216.81;;;25.44;78.74
58243;BME280;50118;53.232;8.252;2023-09-12T11:38:49;101212.84;;;25.28;78.52
58243;BME280;50118;53.232;8.252;2023-09-12T11:41:41;101222.75;;;25.22;80.03
58243;BME280;50118;53.232;8.252;2023-09-12T11:44:06;101224.94;;;24.83;84.68
58243;BME280;50118;53.232;8.252;2023-09-12T11:46:34;101218.09;;;25.41;81.63
58243;BME280;50118;53.232;8.252;2023-09-12T11:49:01;101231.19;;;25.02;82.42
58243;BME280;50118;53.232;8.252;2023-09-12T11:51:26;101233.13;;;25.32;77.42
58243;BME280;50118;53.232;8.252;2023-09-12T11:53:52;101222.53;;;25.54;76.62
58243;BME280;50118;53.232;8.252;2023-09-12T11:56:18;101227.22;;;25.47;77.55
58243;BME280;50118;53.232;8.252;2023-09-12T11:58:44;101227.19;;;25.05;80.12
58243;BME280;50118;53.232;8.252;2023-09-12T12:01:11;101228.72;;;25.31;81.06
58243;BME280;50118;53.232;8.252;2023-09-12T12:03:37;101225.25;;;25.66;75.92
58243;BME280;50118;53.232;8.252;2023-09-12T12:06:03;101223.06;;;25.86;71.78
58243;BME280;50118;53.232;8.252;2023-09-12T12:08:30;101214.06;;;26.09;73.26
58243;BME280;50118;53.232;8.252;2023-09-12T12:10:56;101225.53;;;25.88;75.73
58243;BME280;50118;53.232;8.252;2023-09-12T12:13:23;101206.19;;;25.54;76.52
58243;BME280;50118;53.232;8.252;2023-09-12T12:15:49;101205.13;;;25.79;72.53
58243;BME280;50118;53.232;8.252;2023-09-12T12:18:15;101191.69;;;25.65;74.20
58243;BME280;50118;53.232;8.252;2023-09-12T12:20:41;101187.03;;;25.12;79.65
58243;BME280;50118;53.232;8.252;2023-09-12T12:23:07;101188.66;;;25.85;77.44
58243;BME280;50118;53.232;8.252;2023-09-12T12:25:33;101188.22;;;26.00;75.22
58243;BME280;50118;53.232;8.252;2023-09-12T12:27:59;101186.88;;;26.38;74.72
58243;BME280;50118;53.232;8.252;2023-09-12T12:30:25;101192.28;;;26.74;69.06
58243;BME280;50118;53.232;8.252;2023-09-12T12:32:50;101185.63;;;26.70;69.85
58243;BME280;50118;53.232;8.252;2023-09-12T12:35:21;101174.16;;;26.32;71.23
58243;BME280;50118;53.232;8.252;2023-09-12T12:37:51;101175.38;;;26.24;72.29
58243;BME280;50118;53.232;8.252;2023-09-12T12:40:17;101179.69;;;26.08;74.21
58243;BME280;50118;53.232;8.252;2023-09-12T12:42:43;101181.22;;;25.39;77.55
58243;BME280;50118;53.232;8.252;2023-09-12T12:45:14;101177.22;;;25.53;78.91
58243;BME280;50118;53.232;8.252;2023-09-12T12:47:40;101182.69;;;25.53;78.93
58243;BME280;50118;53.232;8.252;2023-09-12T12:50:12;101181.75;;;25.59;78.98